This is the latest recevied weather packets stored in our database for station/object KM6RDV. If no packets are shown the sender has not sent any weather packets the latest 10 day(s).
| Time | Temp. | Humidity | Pressure | Rain* | Wind** | Luminosity | Snow |
|---|---|---|---|---|---|---|---|
| 1777600822 | 16.67° C | 63% | 1016.2 hPa | 0 mm | - | 83 W/m² | - |
| 1777600218 | 17.22° C | 61% | 1016.2 hPa | 0 mm | - | 111 W/m² | - |
| 1777595419 | 20° C | 52% | 1016.2 hPa | 0 mm | - | 422 W/m² | - |
| 1777590617 | 21.67° C | 46% | 1016.2 hPa | 0 mm | - | 707 W/m² | - |
| 1777587042 | 21.67° C | 46% | 1016.8 hPa | 0 mm | - | 876 W/m² | - |
| 1777586419 | 21.67° C | 48% | 1016.8 hPa | 0 mm | - | 898 W/m² | - |
| 1777585216 | 22.22° C | 49% | 1016.9 hPa | 0 mm | - | 938 W/m² | - |
| 1777583421 | 22.22° C | 49% | 1016.9 hPa | 0 mm | - | 983 W/m² | - |
| 1777581016 | 22.22° C | 51% | 1017.1 hPa | 0 mm | - | 1013 W/m² | - |
| 1777573838 | 19.44° C | 57% | 1018.5 hPa | 0 mm | - | 919 W/m² | - |
| 1777570820 | 18.89° C | 61% | 1018.4 hPa | 0 mm | - | 795 W/m² | - |
| 1777570217 | 18.33° C | 61% | 1018.5 hPa | 0 mm | - | 765 W/m² | - |
| 1777569617 | 18.33° C | 62% | 1018.6 hPa | 0 mm | - | 737 W/m² | - |
| 1777566036 | 16.67° C | 69% | 1018.7 hPa | 0 mm | - | 552 W/m² | - |
| 1777565419 | 16.11° C | 69% | 1018.6 hPa | 0 mm | - | 445 W/m² | - |
| 1777564840 | 16.11° C | 70% | 1018.6 hPa | 0 mm | - | 449 W/m² | - |
| 1777560023 | 12.78° C | 80% | 1018.6 hPa | 0 mm | - | 147 W/m² | - |
| 1777556438 | 10.56° C | 86% | 1018.1 hPa | 0 mm | - | 24 W/m² | - |
| 1777552827 | 11.11° C | 83% | 1018.2 hPa | 0 mm | - | 0 W/m² | - |
| 1777552217 | 11.11° C | 82% | 1018.2 hPa | 0 mm | - | 0 W/m² | - |
| 1777551624 | 11.11° C | 83% | 1018.3 hPa | 0 mm | - | 0 W/m² | - |
| 1777550418 | 11.11° C | 82% | 1018.2 hPa | 0 mm | - | 0 W/m² | - |
| 1777546817 | 11.67° C | 82% | 1018.4 hPa | 0 mm | - | 0 W/m² | - |
| 1777546220 | 11.67° C | 83% | 1018.3 hPa | 0 mm | - | 0 W/m² | - |
| 1777545017 | 11.67° C | 83% | 1018.3 hPa | 0 mm | - | 0 W/m² | - |
* Rain latest hour (hover to see other rain measurements)
** Current wind speed in m/s (hover to see current wind gust speed)